Bigfork, Minnesota
Current Conditions -  °F | °C
As of 10:13 AM on Saturday 25 Oct 2014 (Local Time) from KFOZ Reporting Station
Clear Clear  
Wind Chill:   Ceiling: Unl
Heat Index:   Visibility: 10mi
Dew Point:   Wind: 9mph
Humidity: 54%   Direction: 290°WNW
Pressure: 29.94"   Gusts: 20mph
Location:  47.74°N, 93.65°W
Report Text: KFOZ 251513Z AUTO 29008G17KT 263V323 10SM CLR 09/00 A2994 RMK AO2
Loading
Personal Weather Stations






























Interactive Weather Map
Tropical Storm Tracking
New forecast layout! Learn more

10-Day Weather Forecast

Advertisements
Track Severe Weather on mobile